createdAt,value
2023-01-11T00:01:59.076Z,25.95
2023-01-11T00:04:30.740Z,25.77
2023-01-11T00:06:59.608Z,24.38
2023-01-11T00:09:27.902Z,23.55
2023-01-11T00:11:56.744Z,22.95
2023-01-11T00:14:25.103Z,24.05
2023-01-11T00:16:53.755Z,24.65
2023-01-11T00:19:22.047Z,24.60
2023-01-11T00:21:52.182Z,25.55
2023-01-11T00:24:20.522Z,24.23
2023-01-11T00:27:22.789Z,26.17
2023-01-11T00:29:53.879Z,24.80
2023-01-11T00:32:22.623Z,24.25
2023-01-11T00:34:50.860Z,23.65
2023-01-11T00:37:19.431Z,23.33
2023-01-11T00:39:47.782Z,24.67
2023-01-11T00:42:38.991Z,23.63
2023-01-11T00:45:38.267Z,24.08
2023-01-11T00:48:07.789Z,23.35
2023-01-11T00:50:38.472Z,21.95
2023-01-11T00:53:08.426Z,22.08
2023-01-11T00:55:37.275Z,23.38
2023-01-11T00:58:08.259Z,23.08
2023-01-11T01:00:36.581Z,23.27
2023-01-11T01:03:08.634Z,23.33
2023-01-11T01:08:07.595Z,21.45
2023-01-11T01:10:36.057Z,21.40
2023-01-11T01:13:23.313Z,20.63
2023-01-11T01:15:59.213Z,21.05
2023-01-11T01:18:27.843Z,20.40
2023-01-11T01:20:56.224Z,19.77
2023-01-11T01:23:25.020Z,19.58
2023-01-11T01:25:53.339Z,19.70
2023-01-11T01:28:29.700Z,19.95
2023-01-11T01:30:58.196Z,19.45
2023-01-11T01:33:26.843Z,20.20
2023-01-11T01:36:03.251Z,20.13
2023-01-11T01:38:37.752Z,20.20
2023-01-11T01:41:06.516Z,20.40
2023-01-11T01:44:07.164Z,19.15
2023-01-11T01:46:37.444Z,19.00
2023-01-11T01:49:17.216Z,20.15
2023-01-11T01:51:54.663Z,19.40
2023-01-11T01:54:28.052Z,21.95
2023-01-11T01:57:05.839Z,21.15
2023-01-11T01:59:34.848Z,22.25
2023-01-11T02:02:03.389Z,22.10
2023-01-11T02:04:52.796Z,20.30
2023-01-11T02:07:26.843Z,19.02
2023-01-11T02:10:10.001Z,18.73
2023-01-11T02:12:51.792Z,18.83
2023-01-11T02:15:24.286Z,18.48
2023-01-11T02:17:58.679Z,17.98
2023-01-11T02:21:15.062Z,18.05
2023-01-11T02:24:07.882Z,16.85
2023-01-11T02:27:04.102Z,16.77
2023-01-11T02:30:24.210Z,16.20
2023-01-11T02:33:15.261Z,17.35
2023-01-11T02:36:11.401Z,16.60
2023-01-11T02:39:09.399Z,15.68
2023-01-11T02:42:05.783Z,15.85
2023-01-11T02:45:01.657Z,16.88
2023-01-11T02:47:42.069Z,17.40
2023-01-11T02:50:38.461Z,16.95
2023-01-11T02:53:12.305Z,17.13
2023-01-11T02:55:54.687Z,17.95
2023-01-11T02:58:30.423Z,18.08
2023-01-11T03:01:00.509Z,17.58
2023-01-11T03:03:29.699Z,18.42
2023-01-11T03:06:36.379Z,17.98
2023-01-11T03:09:25.264Z,18.45
2023-01-11T03:12:35.953Z,18.92
2023-01-11T03:15:41.551Z,18.77
2023-01-11T03:18:46.492Z,19.50
2023-01-11T03:21:42.249Z,20.00
2023-01-11T03:24:21.489Z,18.58
2023-01-11T03:26:58.789Z,18.92
2023-01-11T03:30:07.158Z,18.35
2023-01-11T03:32:41.649Z,18.38
2023-01-11T03:35:38.643Z,18.35
2023-01-11T03:38:21.335Z,18.60
2023-01-11T03:40:56.058Z,19.20
2023-01-11T03:43:27.017Z,18.80
2023-01-11T03:46:29.560Z,23.83
2023-01-11T03:49:16.466Z,18.70
2023-01-11T03:51:46.506Z,18.75
2023-01-11T03:54:21.275Z,19.15
2023-01-11T03:57:15.766Z,18.88
2023-01-11T03:59:45.117Z,21.30
2023-01-11T04:02:29.086Z,20.55
2023-01-11T04:04:57.442Z,20.70
2023-01-11T04:07:26.159Z,22.13
2023-01-11T04:09:54.738Z,22.75
2023-01-11T04:12:23.589Z,21.50
2023-01-11T04:14:52.426Z,21.35
2023-01-11T04:17:21.306Z,19.75
2023-01-11T04:19:49.620Z,20.25
2023-01-11T04:22:18.234Z,20.40
2023-01-11T04:24:46.536Z,19.88
2023-01-11T04:27:15.480Z,19.73
2023-01-11T04:29:43.897Z,20.23
2023-01-11T04:32:12.818Z,21.10
2023-01-11T04:34:41.299Z,24.90
2023-01-11T04:37:24.525Z,24.17
2023-01-11T04:39:53.069Z,22.77
2023-01-11T04:42:26.109Z,19.95
2023-01-11T04:45:00.718Z,18.70
2023-01-11T04:47:29.621Z,19.30
2023-01-11T04:49:58.718Z,19.60
2023-01-11T04:52:27.819Z,18.20
2023-01-11T04:55:00.660Z,17.98
2023-01-11T04:57:30.175Z,17.92
2023-01-11T04:59:58.834Z,16.75
2023-01-11T05:02:32.018Z,16.70
2023-01-11T05:05:12.131Z,17.20
2023-01-11T05:07:48.393Z,18.35
2023-01-11T05:10:21.082Z,17.98
2023-01-11T05:12:59.005Z,18.52
2023-01-11T05:15:38.043Z,19.15
2023-01-11T05:21:06.243Z,23.70
2023-01-11T05:23:38.860Z,24.58
2023-01-11T05:28:55.769Z,19.75
2023-01-11T05:31:24.241Z,21.63
2023-01-11T05:33:53.695Z,23.23
2023-01-11T05:36:23.677Z,24.02
2023-01-11T05:38:55.181Z,22.55
2023-01-11T05:41:25.825Z,21.27
2023-01-11T05:44:13.994Z,21.17
2023-01-11T05:46:44.216Z,20.13
2023-01-11T05:49:14.358Z,20.27
2023-01-11T05:51:43.301Z,20.15
2023-01-11T05:54:13.988Z,21.02
2023-01-11T05:56:45.280Z,21.10
2023-01-11T05:59:16.564Z,21.75
2023-01-11T06:01:44.843Z,22.65
2023-01-11T06:04:13.450Z,21.13
2023-01-11T06:09:28.402Z,22.65
2023-01-11T06:11:56.689Z,23.27
2023-01-11T06:14:25.193Z,25.55
2023-01-11T06:16:54.562Z,23.67
2023-01-11T06:19:23.217Z,23.23
2023-01-11T06:21:54.028Z,22.77
2023-01-11T06:24:22.663Z,22.25
2023-01-11T06:26:57.071Z,20.35
2023-01-11T06:29:25.580Z,20.92
2023-01-11T06:31:53.842Z,20.33
2023-01-11T06:34:22.427Z,22.17
2023-01-11T06:36:50.644Z,23.35
2023-01-11T06:39:19.849Z,24.45
2023-01-11T06:41:51.040Z,23.52
2023-01-11T06:44:19.760Z,21.85
2023-01-11T06:46:51.185Z,20.63
2023-01-11T06:49:19.759Z,21.77
2023-01-11T06:51:47.929Z,21.77
2023-01-11T06:54:22.087Z,22.10
2023-01-11T06:56:53.378Z,22.20
2023-01-11T06:59:23.219Z,21.33
2023-01-11T07:01:51.586Z,22.65
2023-01-11T07:04:21.852Z,24.63
2023-01-11T07:06:50.099Z,27.85
2023-01-11T07:09:18.640Z,26.13
2023-01-11T07:11:46.956Z,22.67
2023-01-11T07:14:20.041Z,23.13
2023-01-11T07:16:48.336Z,23.85
2023-01-11T07:19:18.418Z,23.17
2023-01-11T07:21:46.687Z,23.65
2023-01-11T07:24:15.220Z,22.35
2023-01-11T07:26:43.897Z,23.38
2023-01-11T07:29:12.528Z,25.95
2023-01-11T07:31:43.735Z,22.25
2023-01-11T07:34:12.676Z,21.15
2023-01-11T07:36:40.988Z,22.65
2023-01-11T07:39:09.581Z,22.08
2023-01-11T07:41:56.248Z,23.13
2023-01-11T07:44:24.815Z,22.02
2023-01-11T07:46:53.263Z,21.75
2023-01-11T07:49:22.112Z,22.40
2023-01-11T07:51:52.213Z,22.92
2023-01-11T07:54:20.830Z,22.98
2023-01-11T07:56:49.082Z,22.98
2023-01-11T07:59:18.074Z,21.20
2023-01-11T08:01:48.898Z,21.40
2023-01-11T08:04:17.581Z,21.60
2023-01-11T08:06:45.786Z,21.27
2023-01-11T08:09:14.392Z,21.73
2023-01-11T08:12:01.160Z,21.80
2023-01-11T08:14:41.939Z,19.13
2023-01-11T08:17:13.867Z,20.40
2023-01-11T08:19:43.152Z,19.67
2023-01-11T08:22:12.293Z,19.55
2023-01-11T08:24:40.938Z,17.95
2023-01-11T08:27:09.401Z,18.35
2023-01-11T08:29:38.224Z,19.00
2023-01-11T08:32:06.763Z,19.48
2023-01-11T08:34:35.407Z,19.20
2023-01-11T08:37:03.861Z,19.35
2023-01-11T08:39:33.529Z,18.77
2023-01-11T08:42:03.243Z,19.20
2023-01-11T08:44:35.134Z,17.35
2023-01-11T08:47:03.880Z,17.38
2023-01-11T08:49:32.713Z,17.52
2023-01-11T08:52:01.025Z,15.85
2023-01-11T08:54:29.697Z,15.45
2023-01-11T08:56:57.976Z,15.20
2023-01-11T08:59:26.729Z,14.27
2023-01-11T09:01:55.001Z,13.60
2023-01-11T09:04:25.438Z,13.63
2023-01-11T09:06:54.010Z,13.55
2023-01-11T09:09:22.970Z,12.18
2023-01-11T09:11:54.449Z,12.07
2023-01-11T09:14:25.600Z,11.70
2023-01-11T09:16:54.938Z,10.98
2023-01-11T09:19:23.936Z,11.13
2023-01-11T09:21:53.157Z,10.63
2023-01-11T09:24:21.874Z,10.68
2023-01-11T09:26:50.227Z,10.30
2023-01-11T09:29:19.611Z,10.43
2023-01-11T09:31:47.945Z,10.40
2023-01-11T09:34:16.865Z,10.88
2023-01-11T09:36:47.586Z,10.38
2023-01-11T09:39:18.898Z,10.67
2023-01-11T09:42:01.253Z,10.32
2023-01-11T09:44:31.064Z,10.05
2023-01-11T09:47:31.509Z,9.07
2023-01-11T09:50:06.408Z,9.88
2023-01-11T09:52:39.800Z,9.32
2023-01-11T09:55:20.129Z,8.95
2023-01-11T09:58:03.839Z,9.05
2023-01-11T10:00:48.885Z,9.35
2023-01-11T10:03:32.270Z,9.85
2023-01-11T10:06:24.354Z,9.32
2023-01-11T10:18:29.450Z,9.00
2023-01-11T10:19:18.546Z,9.13
2023-01-11T10:21:55.372Z,8.82
2023-01-11T10:24:50.217Z,8.98
2023-01-11T10:27:30.123Z,9.32
2023-01-11T10:30:13.720Z,9.85
2023-01-11T10:32:53.957Z,9.90
2023-01-11T10:35:48.083Z,9.52
2023-01-11T10:38:51.036Z,9.55
2023-01-11T10:41:26.617Z,10.35
2023-01-11T10:44:10.672Z,10.25
2023-01-11T10:46:52.867Z,9.50
2023-01-11T10:49:44.132Z,9.73
2023-01-11T10:52:41.634Z,9.63
2023-01-11T10:55:26.202Z,9.27
2023-01-11T10:58:08.587Z,10.48
2023-01-11T11:01:13.329Z,9.68
2023-01-11T11:03:53.838Z,9.75
2023-01-11T11:07:04.393Z,9.23
2023-01-11T11:09:44.843Z,9.57
2023-01-11T11:12:27.674Z,8.07
2023-01-11T11:15:28.422Z,9.02
2023-01-11T11:17:56.761Z,9.07
2023-01-11T11:20:32.711Z,8.00
2023-01-11T11:23:01.508Z,7.88
2023-01-11T11:25:38.349Z,8.60
2023-01-11T11:28:23.548Z,7.53
2023-01-11T11:30:54.695Z,7.57
2023-01-11T11:36:14.377Z,6.57
2023-01-11T11:39:02.641Z,6.57
2023-01-11T11:41:46.975Z,6.05
2023-01-11T11:44:26.169Z,5.90
2023-01-11T11:47:02.889Z,6.70
2023-01-11T11:49:36.646Z,6.53
2023-01-11T11:52:06.769Z,5.95
2023-01-11T11:54:43.496Z,5.97
2023-01-11T11:57:28.652Z,6.38
2023-01-11T12:00:05.739Z,6.32
2023-01-11T12:02:37.297Z,6.28
2023-01-11T12:05:11.151Z,6.55
2023-01-11T12:07:55.223Z,5.90
2023-01-11T12:10:26.629Z,6.10
2023-01-11T12:13:01.076Z,5.93
2023-01-11T12:15:34.063Z,5.80
2023-01-11T12:18:28.316Z,6.13
2023-01-11T12:20:56.690Z,5.90
2023-01-11T12:23:26.585Z,6.45
2023-01-11T12:26:25.295Z,7.72
2023-01-11T12:29:14.028Z,6.93
2023-01-11T12:32:04.115Z,6.95
2023-01-11T12:34:42.787Z,6.15
2023-01-11T12:37:26.422Z,6.15
2023-01-11T12:40:36.096Z,6.18
2023-01-11T12:43:36.821Z,5.82
2023-01-11T12:46:05.492Z,6.25
2023-01-11T12:48:51.840Z,4.60
2023-01-11T12:51:51.247Z,5.80
2023-01-11T12:55:01.770Z,6.20
2023-01-11T12:58:00.411Z,5.88
2023-01-11T13:00:39.737Z,5.88
2023-01-11T13:03:51.928Z,6.22
2023-01-11T13:06:44.568Z,5.80
2023-01-11T13:09:36.112Z,5.57
2023-01-11T13:12:20.392Z,6.32
2023-01-11T13:15:32.948Z,6.25
2023-01-11T13:18:22.952Z,5.40
2023-01-11T13:21:02.348Z,6.15
2023-01-11T13:23:53.532Z,6.43
2023-01-11T13:26:26.004Z,5.78
2023-01-11T13:29:05.549Z,6.45
2023-01-11T13:31:35.693Z,7.47
2023-01-11T13:34:12.724Z,6.90
2023-01-11T13:36:47.503Z,6.38
2023-01-11T13:39:33.919Z,6.45
2023-01-11T13:42:10.829Z,7.00
2023-01-11T13:45:13.629Z,7.03
2023-01-11T13:47:50.737Z,8.15
2023-01-11T13:50:45.072Z,8.35
2023-01-11T13:53:42.139Z,8.55
2023-01-11T13:56:18.986Z,8.15
2023-01-11T13:59:07.845Z,8.23
2023-01-11T14:01:49.832Z,8.30
2023-01-11T14:04:29.178Z,8.65
2023-01-11T14:07:14.407Z,9.00
2023-01-11T14:10:13.245Z,8.82
2023-01-11T14:13:05.807Z,8.00
2023-01-11T14:15:40.439Z,8.00
2023-01-11T14:18:54.773Z,8.35
2023-01-11T14:21:49.572Z,8.45
2023-01-11T14:24:20.735Z,8.40
2023-01-11T14:27:48.626Z,9.15
2023-01-11T14:30:31.666Z,9.02
2023-01-11T14:33:21.846Z,8.25
2023-01-11T14:36:12.705Z,9.90
2023-01-11T14:39:02.830Z,8.90
2023-01-11T14:42:30.503Z,10.90
2023-01-11T14:45:38.027Z,8.85
2023-01-11T14:48:40.582Z,11.57
2023-01-11T14:53:02.620Z,9.68
2023-01-11T14:55:23.252Z,10.40
2023-01-11T14:57:56.810Z,11.73
2023-01-11T15:00:25.186Z,9.07
2023-01-11T15:03:19.408Z,8.55
2023-01-11T15:06:00.631Z,8.57
2023-01-11T15:08:46.486Z,8.50
2023-01-11T15:12:06.107Z,9.50
2023-01-11T15:15:52.326Z,8.80
2023-01-11T15:22:29.154Z,8.90
2023-01-11T15:25:24.165Z,9.85
2023-01-11T15:31:53.124Z,8.68
2023-01-11T15:34:49.708Z,10.35
2023-01-11T15:37:32.017Z,16.02
2023-01-11T15:40:44.900Z,14.37
2023-01-11T15:43:35.701Z,12.27
2023-01-11T15:46:42.713Z,8.80
2023-01-11T15:49:35.377Z,13.05
2023-01-11T15:52:36.365Z,15.82
2023-01-11T15:55:42.041Z,16.08
2023-01-11T15:58:28.675Z,12.40
2023-01-11T16:01:09.066Z,13.85
2023-01-11T16:03:50.115Z,12.25
2023-01-11T16:06:29.851Z,14.13
2023-01-11T16:09:21.323Z,14.00
2023-01-11T16:12:17.852Z,20.00
2023-01-11T16:15:14.812Z,12.88
2023-01-11T16:18:21.717Z,15.38
2023-01-11T16:21:22.937Z,12.70
2023-01-11T16:28:11.671Z,19.33
2023-01-11T16:31:08.141Z,16.77
2023-01-11T16:33:38.308Z,13.55
2023-01-11T16:36:14.243Z,16.20
2023-01-11T16:39:07.728Z,17.60
2023-01-11T16:41:47.487Z,20.83
2023-01-11T16:44:38.792Z,21.25
2023-01-11T16:47:27.290Z,21.00
2023-01-11T16:50:28.497Z,17.05
2023-01-11T16:53:16.233Z,14.57
2023-01-11T16:56:03.057Z,14.95
2023-01-11T16:59:24.943Z,14.15
2023-01-11T17:02:24.351Z,14.10
2023-01-11T17:04:54.349Z,14.80
2023-01-11T17:07:27.652Z,16.23
2023-01-11T17:10:27.309Z,13.70
2023-01-11T17:13:04.880Z,14.25
2023-01-11T17:15:58.663Z,13.68
2023-01-11T17:19:21.273Z,15.52
2023-01-11T17:22:18.062Z,15.60
2023-01-11T17:25:17.106Z,19.35
2023-01-11T17:27:52.658Z,13.70
2023-01-11T17:30:58.878Z,14.18
2023-01-11T17:33:40.142Z,15.15
2023-01-11T17:36:13.324Z,15.88
2023-01-11T17:38:44.543Z,14.02
2023-01-11T17:41:35.624Z,13.57
2023-01-11T17:44:39.613Z,13.57
2023-01-11T17:47:13.019Z,14.18
2023-01-11T17:49:44.208Z,13.57
2023-01-11T17:52:27.670Z,13.35
2023-01-11T17:55:05.487Z,13.40
2023-01-11T17:57:39.607Z,12.18
2023-01-11T18:00:31.447Z,13.63
2023-01-11T18:03:14.575Z,13.68
2023-01-11T18:05:43.468Z,14.18
2023-01-11T18:08:20.994Z,12.32
2023-01-11T18:11:27.200Z,10.88
2023-01-11T18:14:14.512Z,12.15
2023-01-11T18:17:18.768Z,13.30
2023-01-11T18:19:48.399Z,13.48
2023-01-11T18:22:27.350Z,14.40
2023-01-11T18:25:04.724Z,13.15
2023-01-11T18:27:34.875Z,13.30
2023-01-11T18:30:08.675Z,12.95
2023-01-11T18:32:41.557Z,14.65
2023-01-11T18:35:18.998Z,13.80
2023-01-11T18:37:51.381Z,13.35
2023-01-11T18:40:22.425Z,13.93
2023-01-11T18:42:54.024Z,13.95
2023-01-11T18:45:27.497Z,12.43
2023-01-11T18:47:58.291Z,12.40
2023-01-11T18:50:27.419Z,13.35
2023-01-11T18:52:58.490Z,12.63
2023-01-11T18:55:35.910Z,13.15
2023-01-11T18:58:11.994Z,12.18
2023-01-11T19:02:25.455Z,12.85
2023-01-11T19:06:02.035Z,12.57
2023-01-11T19:12:31.011Z,13.02
2023-01-11T19:15:51.523Z,12.27
2023-01-11T19:18:29.151Z,13.70
2023-01-11T19:21:16.220Z,12.48
2023-01-11T19:23:46.276Z,13.20
2023-01-11T19:26:17.834Z,12.70
2023-01-11T19:29:19.998Z,12.75
2023-01-11T19:31:55.079Z,11.98
2023-01-11T19:36:25.380Z,12.52
2023-01-11T19:38:02.134Z,14.77
2023-01-11T19:41:09.567Z,15.60
2023-01-11T19:43:53.633Z,18.77
2023-01-11T19:46:47.003Z,15.02
2023-01-11T19:49:21.009Z,14.02
2023-01-11T19:51:50.859Z,15.68
2023-01-11T19:54:27.072Z,14.93
2023-01-11T19:57:08.758Z,17.27
2023-01-11T19:59:37.183Z,16.98
2023-01-11T20:02:08.723Z,15.90
2023-01-11T20:04:37.455Z,15.07
2023-01-11T20:07:15.418Z,15.52
2023-01-11T20:10:10.064Z,16.13
2023-01-11T20:12:38.748Z,16.00
2023-01-11T20:15:07.834Z,16.27
2023-01-11T20:17:37.993Z,16.25
2023-01-11T20:20:07.449Z,15.63
2023-01-11T20:22:36.778Z,18.60
2023-01-11T20:25:05.732Z,17.13
2023-01-11T20:27:34.821Z,15.43
2023-01-11T20:30:28.916Z,13.38
2023-01-11T20:32:59.820Z,16.58
2023-01-11T20:35:29.463Z,15.38
2023-01-11T20:38:03.302Z,16.27
2023-01-11T20:40:34.705Z,17.33
2023-01-11T20:43:07.370Z,17.75
2023-01-11T20:45:35.903Z,17.40
2023-01-11T20:48:09.350Z,15.10
2023-01-11T20:51:11.279Z,14.13
2023-01-11T20:53:40.984Z,14.55
2023-01-11T20:56:15.251Z,15.35
2023-01-11T20:58:51.438Z,15.43
2023-01-11T21:01:27.459Z,14.68
2023-01-11T21:04:07.782Z,14.75
2023-01-11T21:06:39.677Z,15.82
2023-01-11T21:14:07.967Z,14.07
2023-01-11T21:21:52.984Z,14.23
2023-01-11T21:24:25.544Z,14.75
2023-01-11T21:26:56.773Z,14.35
2023-01-11T21:29:25.804Z,14.77
2023-01-11T21:31:55.603Z,13.63
2023-01-11T21:34:39.375Z,14.80
2023-01-11T21:37:33.356Z,14.25
2023-01-11T21:40:21.078Z,14.30
2023-01-11T21:42:49.509Z,13.50
2023-01-11T21:45:18.188Z,13.48
2023-01-11T21:47:46.614Z,14.45
2023-01-11T21:50:15.324Z,15.77
2023-01-11T21:52:43.920Z,14.10
2023-01-11T21:55:13.309Z,14.15
2023-01-11T21:57:41.843Z,14.40
2023-01-11T22:00:15.203Z,14.82
2023-01-11T22:02:43.673Z,15.05
2023-01-11T22:05:12.481Z,13.75
2023-01-11T22:07:41.362Z,14.45
2023-01-11T22:10:10.832Z,14.77
2023-01-11T22:12:39.163Z,14.35
2023-01-11T22:15:09.707Z,13.88
2023-01-11T22:17:38.229Z,12.52
2023-01-11T22:20:07.531Z,13.27
2023-01-11T22:22:36.175Z,14.15
2023-01-11T22:25:07.428Z,13.98
2023-01-11T22:27:35.926Z,14.38
2023-01-11T22:30:05.236Z,14.00
2023-01-11T22:32:33.611Z,15.20
2023-01-11T22:35:02.810Z,14.57
2023-01-11T22:37:31.245Z,14.48
2023-01-11T22:40:01.694Z,14.98
2023-01-11T22:42:30.871Z,15.35
2023-01-11T22:44:59.557Z,15.68
2023-01-11T22:47:27.960Z,14.30
2023-01-11T22:49:57.011Z,14.80
2023-01-11T22:52:25.399Z,13.45
2023-01-11T22:54:54.033Z,14.85
2023-01-11T22:57:22.426Z,16.05
2023-01-11T22:59:51.254Z,14.27
2023-01-11T23:02:19.648Z,14.07
2023-01-11T23:04:48.372Z,15.10
2023-01-11T23:07:16.748Z,14.27
2023-01-11T23:09:45.553Z,14.63
2023-01-11T23:12:32.251Z,14.65
2023-01-11T23:15:02.322Z,14.55
2023-01-11T23:17:30.830Z,15.18
2023-01-11T23:20:01.703Z,13.07
2023-01-11T23:22:31.870Z,14.38
2023-01-11T23:25:00.603Z,15.02
2023-01-11T23:27:28.881Z,14.07
2023-01-11T23:29:57.545Z,14.52
2023-01-11T23:32:27.542Z,13.45
2023-01-11T23:34:56.237Z,15.23
2023-01-11T23:37:24.491Z,15.60
2023-01-11T23:39:53.011Z,13.85
2023-01-11T23:42:27.130Z,14.48
2023-01-11T23:44:56.007Z,14.55
2023-01-11T23:47:25.771Z,14.40
2023-01-11T23:49:56.491Z,14.85
2023-01-11T23:52:27.288Z,14.32
2023-01-11T23:54:56.343Z,14.97
2023-01-11T23:57:26.149Z,13.77
2023-01-11T23:59:54.880Z,13.13
